Terminal Aerodrome Forecast
Issued by NWS

Home | Current Version | Previous Version | Graphics & Text | Print | Product List | Glossary On
Versions: 1 2 3 4 5 6 7 8 9 10 11 12 13 14 15 16 17
000
FTUS43 KBIS 272320
TAFMOT
TAF
KMOT 272320Z 2800/2824 13004KT P6SM SKC
     FM280500 19006KT P6SM SKC
     FM281700 26010KT P6SM FEW250
     FM281900 29010KT P6SM FEW250=

USA.gov is the U.S. government's official web portal to all federal, state and local government web resources and services.